Terminal Aerodrome Forecast
Issued by NWS

Home | Current Version | Previous Version | Text Only | Print | Product List | Glossary On
Versions: 1 2 3 4 5 6 7 8 9 10 11
000
FTPQ31 PGUM 121720
TAFGUM
TAF

TAF
PTYA 121720Z 1218/1318 13006KT P6SM VCSH SCT016 SCT040 SCT130
      TEMPO 1220/1224 17011KT 2SM TSRA SCT012CB BKN020 OVC040=

USA.gov is the U.S. government's official web portal to all federal, state and local government web resources and services.